Time;durP1;ratioP1;P1;durP2;ratioP2;P2;SDS_P1;SDS_P2;PMS_P1;PMS_P2;Temp;Humidity;BMP_temperature;BMP_pressure;BME280_temperature;BME280_humidity;BME280_pressure;Samples;Min_cycle;Max_cycle;Signal;HPM_P1;HPM_P2
2023/06/02 00:02:12;;;;;;;10.57;5.75;;;;;;;20.87;50.21;98800.66;4343847;33;32887;-83
2023/06/02 00:04:40;;;;;;;9.55;6.03;;;;;;;20.90;50.17;98800.56;4344333;33;34635;-83
2023/06/02 00:07:08;;;;;;;9.75;5.90;;;;;;;20.84;50.69;98792.88;4344868;33;34249;-84
2023/06/02 00:09:41;;;;;;;8.80;5.53;;;;;;;21.03;50.02;98798.38;4344665;33;33965;-82
2023/06/02 00:12:10;;;;;;;8.80;5.62;;;;;;;21.13;49.73;98802.38;4330472;33;32723;-83
2023/06/02 00:14:38;;;;;;;8.75;5.50;;;;;;;20.85;49.93;98792.81;4345436;33;34606;-82
2023/06/02 00:17:07;;;;;;;9.63;5.50;;;;;;;20.82;49.63;98797.34;4345272;33;34077;-83
2023/06/02 00:19:35;;;;;;;9.95;5.47;;;;;;;20.89;49.74;98789.16;4345473;33;33882;-83
2023/06/02 00:22:05;;;;;;;8.93;5.50;;;;;;;20.82;49.74;98790.28;4345969;33;34020;-83
2023/06/02 00:24:32;;;;;;;11.00;5.80;;;;;;;20.78;49.91;98791.31;4320341;33;33592;-83
2023/06/02 00:27:00;;;;;;;9.98;5.72;;;;;;;20.75;49.65;98794.03;4327639;32;32339;-83
2023/06/02 00:29:27;;;;;;;7.95;4.90;;;;;;;20.87;49.28;98792.75;4332204;33;33905;-84
2023/06/02 00:31:55;;;;;;;10.18;5.32;;;;;;;20.93;49.50;98792.53;4331761;33;32990;-83
2023/06/02 00:34:24;;;;;;;9.88;5.10;;;;;;;20.83;49.66;98786.72;4345703;33;34133;-83
2023/06/02 00:36:51;;;;;;;10.25;5.28;;;;;;;20.80;49.90;98799.19;4344776;33;33614;-83
2023/06/02 00:39:19;;;;;;;10.23;5.30;;;;;;;20.80;49.90;98793.91;4332091;33;34019;-83
2023/06/02 00:41:47;;;;;;;11.07;5.97;;;;;;;20.86;49.80;98794.53;4332439;33;33846;-84
2023/06/02 00:44:15;;;;;;;12.77;5.80;;;;;;;20.64;50.88;98790.91;4331392;33;34522;-84
2023/06/02 00:46:43;;;;;;;9.50;6.18;;;;;;;20.71;50.39;98797.69;4345109;32;33132;-82
2023/06/02 00:49:11;;;;;;;8.85;5.70;;;;;;;20.74;50.38;98794.09;4345295;32;33554;-82
2023/06/02 00:51:40;;;;;;;11.15;6.53;;;;;;;20.69;50.56;98793.41;4345142;32;34954;-84
2023/06/02 00:54:09;;;;;;;9.15;6.15;;;;;;;20.65;50.55;98790.03;4331813;33;35015;-84
2023/06/02 00:56:39;;;;;;;9.25;5.45;;;;;;;20.83;49.99;98792.00;4331484;33;34130;-84
2023/06/02 00:59:07;;;;;;;10.65;6.12;;;;;;;20.86;50.06;98791.03;4330382;33;33501;-84
2023/06/02 01:01:35;;;;;;;8.93;5.45;;;;;;;20.76;50.62;98781.72;4331170;33;33711;-84
2023/06/02 01:04:03;;;;;;;14.60;5.85;;;;;;;20.70;50.53;98784.59;4330705;33;33713;-83
2023/06/02 01:06:34;;;;;;;9.30;5.65;;;;;;;20.59;51.01;98788.44;4332113;32;33760;-84
2023/06/02 01:09:07;;;;;;;9.95;5.30;;;;;;;20.56;51.48;98785.06;4343157;32;33554;-84
2023/06/02 01:11:34;;;;;;;9.30;5.47;;;;;;;20.61;51.21;98788.41;4330373;32;34792;-84
2023/06/02 01:14:02;;;;;;;9.18;5.30;;;;;;;20.61;50.92;98780.50;4318081;33;32699;-83
2023/06/02 01:16:32;;;;;;;9.68;5.53;;;;;;;20.59;50.75;98787.59;4332511;32;32926;-83
2023/06/02 01:19:00;;;;;;;9.50;5.60;;;;;;;20.57;50.74;98790.28;4332659;33;34598;-85
2023/06/02 01:21:34;;;;;;;9.00;5.10;;;;;;;20.71;50.31;98781.87;4332054;33;34001;-82
2023/06/02 01:24:02;;;;;;;11.27;6.12;;;;;;;20.60;50.27;98784.03;4330418;32;35121;-83
2023/06/02 01:26:34;;;;;;;10.32;5.80;;;;;;;20.46;50.57;98775.72;4335429;32;32960;-82
2023/06/02 01:29:02;;;;;;;9.70;5.85;;;;;;;20.70;50.18;98780.19;4345763;33;33907;-84
2023/06/02 01:31:37;;;;;;;11.65;5.80;;;;;;;20.57;50.58;98778.84;4344013;32;34852;-83
2023/06/02 01:34:16;;;;;;;9.70;6.15;;;;;;;20.68;50.27;98781.13;4332660;33;34609;-83
2023/06/02 01:36:45;;;;;;;10.00;6.25;;;;;;;20.65;50.68;98777.72;4332296;32;33593;-82
2023/06/02 01:39:14;;;;;;;10.32;6.03;;;;;;;20.67;50.84;98775.00;4347907;32;33282;-83
2023/06/02 01:41:44;;;;;;;9.23;5.85;;;;;;;20.55;50.64;98781.56;4320127;33;34243;-84
2023/06/02 01:44:13;;;;;;;10.40;5.68;;;;;;;20.58;50.47;98786.72;4335369;33;33768;-83
2023/06/02 01:46:40;;;;;;;10.88;6.32;;;;;;;20.46;51.06;98791.53;4346998;32;33440;-83
2023/06/02 01:49:15;;;;;;;10.32;6.07;;;;;;;20.28;51.67;98785.94;4322392;33;34086;-83
2023/06/02 01:51:44;;;;;;;10.47;6.07;;;;;;;20.36;51.84;98785.69;4332580;33;34130;-84
2023/06/02 01:54:12;;;;;;;13.68;6.43;;;;;;;20.47;51.24;98782.72;4329092;33;33481;-83
2023/06/02 01:56:39;;;;;;;10.30;5.90;;;;;;;20.59;50.82;98783.19;4326349;33;32869;-82
2023/06/02 01:59:08;;;;;;;9.07;5.55;;;;;;;20.53;51.05;98783.41;4343595;32;33896;-83
2023/06/02 02:01:40;;;;;;;11.55;5.85;;;;;;;20.38;51.40;98778.59;4336515;32;34841;-83
2023/06/02 02:04:08;;;;;;;10.88;6.72;;;;;;;20.28;51.40;98778.03;4357512;32;33944;-83
2023/06/02 02:06:35;;;;;;;10.48;6.35;;;;;;;20.23;51.93;98785.25;4353455;32;33388;-82
2023/06/02 02:09:03;;;;;;;12.05;6.20;;;;;;;20.24;51.85;98783.47;4357768;32;33911;-83
2023/06/02 02:11:31;;;;;;;11.00;6.53;;;;;;;20.26;51.56;98774.59;4322693;33;33699;-82
2023/06/02 02:13:58;;;;;;;10.23;6.03;;;;;;;20.21;51.46;98781.78;4347509;32;33707;-82
2023/06/02 02:16:26;;;;;;;11.23;6.18;;;;;;;20.14;51.64;98781.13;4332413;33;33642;-83
2023/06/02 02:18:56;;;;;;;10.85;6.07;;;;;;;20.04;52.03;98779.72;4338496;33;34036;-82
2023/06/02 02:21:25;;;;;;;11.12;6.00;;;;;;;20.12;51.83;98776.84;4346301;32;34180;-83
2023/06/02 02:23:53;;;;;;;9.88;5.90;;;;;;;20.17;51.86;98764.38;4356949;32;35446;-82
2023/06/02 02:26:21;;;;;;;8.98;5.80;;;;;;;20.03;52.02;98766.59;4345423;32;33813;-82
2023/06/02 02:28:48;;;;;;;10.82;5.82;;;;;;;20.22;51.26;98767.69;4345230;32;33727;-83
2023/06/02 02:31:16;;;;;;;7.85;5.37;;;;;;;20.06;51.46;98766.50;4346613;32;34998;-82
2023/06/02 02:33:44;;;;;;;12.30;6.10;;;;;;;20.05;51.54;98767.41;4345689;32;33657;-83
2023/06/02 02:36:11;;;;;;;10.30;5.90;;;;;;;19.89;51.91;98769.66;4330984;32;33524;-82
2023/06/02 02:38:39;;;;;;;10.35;6.07;;;;;;;19.95;51.85;98771.22;4343564;32;33976;-81
2023/06/02 02:41:08;;;;;;;9.65;5.90;;;;;;;19.90;52.02;98769.59;4346485;32;34138;-83
2023/06/02 02:43:36;;;;;;;9.98;5.82;;;;;;;19.97;51.91;98767.66;4332263;33;33707;-82
2023/06/02 02:46:05;;;;;;;11.25;5.90;;;;;;;19.63;52.75;98763.44;4348047;32;33844;-82
2023/06/02 02:48:33;;;;;;;11.63;6.28;;;;;;;19.81;52.01;98759.37;4347353;32;34899;-83
2023/06/02 02:51:02;;;;;;;11.60;5.90;;;;;;;19.83;51.64;98765.44;4346367;32;34980;-82
2023/06/02 02:53:31;;;;;;;8.70;5.55;;;;;;;19.69;52.14;98762.38;4332474;33;33844;-83
2023/06/02 02:55:59;;;;;;;13.60;6.28;;;;;;;19.82;51.67;98763.72;4331844;33;32786;-84
2023/06/02 02:58:26;;;;;;;10.32;6.22;;;;;;;19.74;51.85;98759.63;4345785;33;33549;-83
2023/06/02 03:00:55;;;;;;;8.48;5.80;;;;;;;19.84;51.66;98758.41;4346866;32;35103;-81
2023/06/02 03:03:23;;;;;;;9.93;5.93;;;;;;;19.81;51.86;98759.37;4346443;32;33878;-83
2023/06/02 03:05:50;;;;;;;9.55;6.25;;;;;;;19.73;52.13;98764.00;4349249;32;32959;-83
2023/06/02 03:08:18;;;;;;;8.60;5.45;;;;;;;19.76;52.30;98756.00;4333983;32;33946;-83
2023/06/02 03:10:47;;;;;;;9.80;5.68;;;;;;;19.88;51.94;98758.25;4333306;33;34063;-82
2023/06/02 03:13:14;;;;;;;11.05;6.25;;;;;;;19.77;52.16;98760.38;4329763;33;33498;-82
2023/06/02 03:15:42;;;;;;;9.88;5.72;;;;;;;19.84;51.80;98758.41;4336759;32;33009;-84
2023/06/02 03:18:12;;;;;;;10.98;6.28;;;;;;;19.88;51.64;98757.41;4344546;32;34160;-83
2023/06/02 03:20:41;;;;;;;8.35;5.75;;;;;;;19.77;52.49;98757.72;4333030;32;33675;-84
2023/06/02 03:23:09;;;;;;;9.05;6.18;;;;;;;19.77;52.72;98757.72;4346811;32;33749;-85
2023/06/02 03:25:37;;;;;;;8.48;5.70;;;;;;;19.95;52.27;98760.72;4345461;32;33216;-83
2023/06/02 03:28:05;;;;;;;8.93;5.57;;;;;;;19.82;52.58;98761.09;4344196;32;33251;-83
2023/06/02 03:30:33;;;;;;;10.60;6.10;;;;;;;19.84;52.56;98758.41;4345915;32;34833;-83
2023/06/02 03:33:00;;;;;;;8.02;5.50;;;;;;;19.91;52.41;98755.53;4331233;32;33816;-83
2023/06/02 03:35:28;;;;;;;10.68;6.40;;;;;;;19.85;52.67;98755.75;4328501;32;33547;-84
2023/06/02 03:37:56;;;;;;;10.77;6.40;;;;;;;19.89;52.55;98762.62;4344751;32;34211;-82
2023/06/02 03:40:25;;;;;;;10.00;6.10;;;;;;;20.00;52.25;98764.03;4330891;33;33644;-82
2023/06/02 03:42:52;;;;;;;10.50;6.60;;;;;;;19.91;52.95;98765.22;4345125;32;34397;-83
2023/06/02 03:45:20;;;;;;;11.25;5.50;;;;;;;20.13;53.20;98762.75;4345015;33;34343;-81
2023/06/02 03:47:48;;;;;;;10.65;6.05;;;;;;;20.32;52.81;98761.22;4346377;32;33626;-83
2023/06/02 03:50:16;;;;;;;9.38;5.55;;;;;;;20.52;52.47;98770.28;4345784;32;35054;-84
2023/06/02 03:52:44;;;;;;;8.57;5.80;;;;;;;20.67;52.15;98764.47;4344378;32;33753;-82
2023/06/02 03:55:12;;;;;;;10.98;5.68;;;;;;;20.77;51.84;98771.16;4343439;32;34162;-83
2023/06/02 03:57:41;;;;;;;9.38;5.25;;;;;;;20.92;51.68;98771.53;4345203;32;33866;-85
2023/06/02 04:00:12;;;;;;;9.63;5.50;;;;;;;21.17;51.29;98769.72;4331652;33;33804;-82
2023/06/02 04:02:40;;;;;;;9.13;5.70;;;;;;;21.14;51.58;98757.53;4330013;32;34241;-84
2023/06/02 04:05:11;;;;;;;8.68;5.70;;;;;;;21.42;51.14;98767.06;4343819;33;32942;-82
2023/06/02 04:07:40;;;;;;;10.32;5.62;;;;;;;21.62;50.71;98761.03;4344127;32;34011;-83
2023/06/02 04:10:09;;;;;;;10.38;5.60;;;;;;;21.75;50.27;98762.28;4330094;33;33481;-84
2023/06/02 04:12:36;;;;;;;9.52;5.85;;;;;;;21.89;50.35;98763.50;4344352;32;33576;-83
2023/06/02 04:15:04;;;;;;;9.50;5.50;;;;;;;22.10;50.00;98765.28;4330360;33;31927;-83
2023/06/02 04:17:32;;;;;;;9.30;5.57;;;;;;;22.32;49.97;98763.53;4333472;33;33584;-82
2023/06/02 04:20:00;;;;;;;9.02;5.50;;;;;;;22.61;49.32;98765.84;4320274;33;32521;-81
2023/06/02 04:22:29;;;;;;;11.88;5.65;;;;;;;22.78;49.64;98766.87;4345551;33;35005;-80
2023/06/02 04:24:56;;;;;;;10.48;5.62;;;;;;;23.06;49.31;98768.31;4332223;33;33477;-82
2023/06/02 04:27:24;;;;;;;11.95;5.00;;;;;;;23.36;48.62;98752.84;4330062;33;33904;-81
2023/06/02 04:29:52;;;;;;;8.27;5.53;;;;;;;23.51;48.35;98757.44;4347440;32;34043;-81
2023/06/02 04:32:20;;;;;;;10.55;5.45;;;;;;;23.81;47.81;98762.25;4345650;33;33673;-81
2023/06/02 04:34:50;;;;;;;11.98;5.47;;;;;;;24.17;47.26;98762.28;4346380;32;34679;-81
2023/06/02 04:37:18;;;;;;;9.15;5.37;;;;;;;24.28;47.02;98761.72;4344802;32;34887;-80
2023/06/02 04:39:50;;;;;;;9.80;6.12;;;;;;;24.62;46.78;98758.25;4355442;32;34204;-80
2023/06/02 04:42:17;;;;;;;12.18;5.37;;;;;;;24.69;46.91;98761.47;4346754;32;34599;-84
2023/06/02 04:44:47;;;;;;;11.85;5.40;;;;;;;24.99;46.31;98751.06;4330354;32;33295;-81
2023/06/02 04:47:14;;;;;;;9.48;5.40;;;;;;;25.26;46.20;98756.72;4345564;32;33751;-83
2023/06/02 04:49:42;;;;;;;10.23;5.22;;;;;;;25.55;46.03;98759.59;4349858;32;34775;-80
2023/06/02 04:52:10;;;;;;;8.13;5.22;;;;;;;25.47;46.20;98758.22;4347353;32;34583;-83
2023/06/02 04:54:38;;;;;;;12.00;5.00;;;;;;;25.45;46.49;98756.59;4347866;32;33150;-83
2023/06/02 04:57:07;;;;;;;10.43;5.00;;;;;;;25.84;45.97;98758.87;4347399;33;34764;-83
2023/06/02 04:59:35;;;;;;;13.18;6.45;;;;;;;25.90;46.28;98760.31;4347941;33;34196;-84
2023/06/02 05:02:03;;;;;;;8.35;4.87;;;;;;;26.00;46.06;98760.69;4347486;33;34635;-83
2023/06/02 05:04:31;;;;;;;13.27;5.72;;;;;;;26.18;45.82;98757.81;4347356;33;34010;-83
2023/06/02 05:06:58;;;;;;;12.23;4.97;;;;;;;26.14;46.49;98756.28;4347398;33;34210;-83
2023/06/02 05:09:27;;;;;;;8.30;5.43;;;;;;;26.44;46.15;98758.09;4334658;33;35345;-83
2023/06/02 05:11:54;;;;;;;11.02;5.28;;;;;;;26.61;46.02;98757.13;4334278;33;34101;-82
2023/06/02 05:14:23;;;;;;;9.15;5.30;;;;;;;26.73;46.41;98763.53;4322023;33;33722;-83
2023/06/02 05:16:51;;;;;;;9.52;4.87;;;;;;;26.24;43.78;98753.09;4346795;33;33967;-83
2023/06/02 05:19:18;;;;;;;13.52;5.40;;;;;;;26.69;42.74;98761.03;4334232;33;35093;-83
2023/06/02 05:21:48;;;;;;;9.93;5.28;;;;;;;26.40;42.76;98757.44;4347718;33;33837;-83
2023/06/02 05:24:17;;;;;;;10.35;6.28;;;;;;;26.85;44.23;98766.28;4347468;33;34263;-83
2023/06/02 05:26:45;;;;;;;13.25;5.72;;;;;;;26.49;42.50;98764.03;4347024;33;33640;-83
2023/06/02 05:29:12;;;;;;;8.50;5.45;;;;;;;26.39;42.08;98762.81;4347574;33;33650;-83
2023/06/02 05:31:40;;;;;;;8.75;5.47;;;;;;;26.41;41.82;98766.25;4346949;33;33924;-83
2023/06/02 05:34:08;;;;;;;13.07;5.87;;;;;;;26.86;41.39;98761.88;4347061;32;33584;-83
2023/06/02 05:36:35;;;;;;;13.02;5.72;;;;;;;26.66;42.46;98763.88;4347407;33;33588;-83
2023/06/02 05:39:03;;;;;;;9.98;5.35;;;;;;;25.92;42.10;98766.41;4347406;32;34039;-83
2023/06/02 05:41:31;;;;;;;10.00;5.40;;;;;;;26.75;42.01;98765.16;4333591;33;33725;-83
2023/06/02 05:43:58;;;;;;;11.30;5.32;;;;;;;26.78;42.49;98759.63;4347355;33;33669;-84
2023/06/02 05:46:26;;;;;;;8.80;5.60;;;;;;;26.81;41.01;98758.59;4347494;33;35006;-83
2023/06/02 05:48:54;;;;;;;9.70;5.80;;;;;;;26.52;42.17;98757.66;4333401;33;32543;-84
2023/06/02 05:51:21;;;;;;;13.43;5.75;;;;;;;26.90;41.42;98763.38;4347190;33;33816;-85
2023/06/02 05:53:50;;;;;;;9.60;5.18;;;;;;;26.97;41.17;98764.69;4347321;33;33450;-84
2023/06/02 05:56:17;;;;;;;9.07;5.22;;;;;;;27.00;40.42;98766.31;4347486;33;33430;-84
2023/06/02 05:58:46;;;;;;;9.30;5.30;;;;;;;27.15;41.68;98760.94;4333933;33;34920;-84
2023/06/02 06:01:15;;;;;;;10.57;5.22;;;;;;;27.34;40.93;98755.34;4347500;33;33761;-83
2023/06/02 06:03:42;;;;;;;8.88;5.00;;;;;;;27.33;40.38;98752.78;4334445;33;34262;-84
2023/06/02 06:06:11;;;;;;;7.45;4.85;;;;;;;27.45;41.43;98754.66;4347499;32;34585;-84
2023/06/02 06:08:39;;;;;;;8.48;5.10;;;;;;;27.68;41.34;98760.34;4334131;33;34790;-83
2023/06/02 06:11:07;;;;;;;9.25;4.85;;;;;;;27.60;40.27;98760.84;4333822;33;33187;-84
2023/06/02 06:13:35;;;;;;;10.57;5.53;;;;;;;27.54;40.73;98759.44;4347704;33;33431;-84
2023/06/02 06:16:03;;;;;;;11.93;5.05;;;;;;;28.08;38.77;98754.19;4333519;33;32935;-84
2023/06/02 06:18:31;;;;;;;7.87;5.12;;;;;;;28.10;37.94;98762.91;4346984;33;33853;-84
2023/06/02 06:20:58;;;;;;;8.75;5.00;;;;;;;27.71;38.16;98754.84;4347481;33;33239;-83
2023/06/02 06:23:26;;;;;;;9.50;5.10;;;;;;;27.78;38.28;98756.19;4333637;33;34225;-83
2023/06/02 06:25:55;;;;;;;9.95;5.72;;;;;;;27.66;39.80;98757.81;4333759;33;33877;-83
2023/06/02 06:28:22;;;;;;;9.27;5.30;;;;;;;27.58;38.04;98766.28;4347138;33;35142;-83
2023/06/02 06:30:50;;;;;;;9.23;4.97;;;;;;;26.50;39.99;98770.22;4347306;33;33589;-83
2023/06/02 06:33:18;;;;;;;9.70;4.97;;;;;;;26.75;39.98;98772.28;4333411;33;33080;-83
2023/06/02 06:35:46;;;;;;;10.48;5.43;;;;;;;26.91;39.81;98768.59;4346970;33;33846;-83
2023/06/02 06:38:14;;;;;;;8.70;5.18;;;;;;;27.11;40.36;98778.06;4333410;33;32728;-83
2023/06/02 06:40:43;;;;;;;8.55;5.25;;;;;;;27.34;39.46;98776.63;4333814;33;33780;-83
2023/06/02 06:43:11;;;;;;;12.10;5.80;;;;;;;27.13;40.24;98781.50;4333645;33;32091;-83
2023/06/02 06:45:51;;;;;;;10.40;5.57;;;;;;;26.93;40.02;98779.13;4346786;33;34509;-83
2023/06/02 06:48:18;;;;;;;9.48;5.03;;;;;;;27.07;40.66;98780.97;4333771;33;33699;-83
2023/06/02 06:50:49;;;;;;;9.82;5.40;;;;;;;26.80;41.63;98788.81;4346953;33;33564;-83
2023/06/02 06:53:18;;;;;;;12.95;5.50;;;;;;;27.19;40.11;98779.41;4346763;33;33330;-83
2023/06/02 06:55:46;;;;;;;10.82;5.43;;;;;;;26.94;40.38;98786.19;4333531;33;34425;-83
2023/06/02 06:58:13;;;;;;;10.25;5.50;;;;;;;26.67;40.99;98786.88;4346522;33;33561;-84
2023/06/02 07:00:41;;;;;;;12.05;5.30;;;;;;;26.86;40.62;98784.00;4346910;33;34649;-83
2023/06/02 07:03:08;;;;;;;9.40;5.55;;;;;;;26.90;40.37;98787.31;4333307;33;34246;-84
2023/06/02 07:05:36;;;;;;;9.75;5.28;;;;;;;26.94;41.60;98791.50;4346708;33;33944;-84
2023/06/02 07:08:04;;;;;;;10.18;5.40;;;;;;;27.45;39.94;98783.97;4333240;33;35201;-85
2023/06/02 07:10:32;;;;;;;10.88;4.75;;;;;;;27.96;39.46;98786.09;4333372;33;33778;-84
2023/06/02 07:12:59;;;;;;;7.47;5.00;;;;;;;27.60;38.31;98784.81;4332436;33;33042;-84
2023/06/02 07:15:27;;;;;;;10.48;5.18;;;;;;;27.79;35.73;98779.19;4345633;33;33999;-84
2023/06/02 07:17:55;;;;;;;9.52;5.05;;;;;;;28.08;36.03;98780.84;4346588;33;34629;-84
2023/06/02 07:20:23;;;;;;;10.30;5.65;;;;;;;27.60;37.72;98782.13;4346491;33;34535;-83
2023/06/02 07:22:50;;;;;;;10.48;5.28;;;;;;;27.73;39.22;98776.88;4333159;33;31762;-83
2023/06/02 07:25:18;;;;;;;10.02;5.00;;;;;;;27.97;38.63;98778.03;4333619;33;33574;-84
2023/06/02 07:27:45;;;;;;;9.18;4.93;;;;;;;28.40;39.07;98780.56;4346292;33;34279;-85
2023/06/02 07:30:13;;;;;;;8.85;4.60;;;;;;;27.27;38.94;98777.09;4333378;33;33359;-84
2023/06/02 07:32:40;;;;;;;8.20;4.75;;;;;;;26.81;38.27;98785.19;4346216;32;34143;-83
2023/06/02 07:35:08;;;;;;;11.68;4.53;;;;;;;27.50;38.33;98783.66;4333267;33;34013;-83
2023/06/02 07:37:36;;;;;;;10.73;4.55;;;;;;;27.57;38.74;98779.66;4333027;33;32737;-86
2023/06/02 07:40:04;;;;;;;10.40;5.03;;;;;;;28.01;37.08;98774.19;4333220;33;33045;-84
2023/06/02 07:42:31;;;;;;;8.73;5.07;;;;;;;27.97;35.61;98778.03;4346305;33;33383;-85
2023/06/02 07:44:59;;;;;;;11.60;5.55;;;;;;;28.03;36.12;98774.94;4332826;33;33901;-84
2023/06/02 07:47:27;;;;;;;8.63;5.07;;;;;;;28.16;35.70;98771.50;4346216;33;34983;-84
2023/06/02 07:49:54;;;;;;;8.70;4.97;;;;;;;28.57;35.72;98772.28;4332971;33;34326;-84
2023/06/02 07:52:22;;;;;;;9.10;5.15;;;;;;;28.34;35.84;98775.63;4346413;33;33383;-84
2023/06/02 07:54:49;;;;;;;12.05;5.32;;;;;;;28.31;36.24;98776.66;4346641;33;34786;-85
2023/06/02 07:57:17;;;;;;;12.25;5.40;;;;;;;28.35;38.06;98785.31;4346354;33;34186;-83
2023/06/02 07:59:44;;;;;;;10.65;5.12;;;;;;;28.44;36.04;98792.72;4333110;33;34500;-84
2023/06/02 08:02:12;;;;;;;9.52;5.45;;;;;;;28.34;36.94;98787.13;4346448;33;33626;-84
2023/06/02 08:04:40;;;;;;;11.10;4.97;;;;;;;27.86;37.69;98775.19;4346141;33;34165;-84
2023/06/02 08:07:07;;;;;;;9.30;5.18;;;;;;;27.76;38.21;98774.06;4332772;33;34073;-84
2023/06/02 08:09:35;;;;;;;13.07;6.00;;;;;;;28.11;38.17;98775.31;4346147;33;34032;-83
2023/06/02 08:12:03;;;;;;;10.70;5.28;;;;;;;28.82;35.78;98776.81;4346244;33;33338;-83
2023/06/02 08:14:31;;;;;;;11.45;5.78;;;;;;;27.91;38.11;98769.56;4346140;33;34296;-84
2023/06/02 08:16:58;;;;;;;10.40;5.60;;;;;;;28.38;37.49;98771.81;4345652;33;34022;-84
2023/06/02 08:19:26;;;;;;;13.45;5.97;;;;;;;28.36;37.77;98774.53;4345678;32;34172;-83
2023/06/02 08:21:54;;;;;;;12.52;5.28;;;;;;;28.85;37.58;98773.06;4320443;33;32447;-84
2023/06/02 08:24:25;;;;;;;10.05;5.80;;;;;;;28.72;37.62;98769.56;4331304;33;34505;-85
2023/06/02 08:26:54;;;;;;;10.38;5.78;;;;;;;28.62;36.72;98780.81;4345620;33;34171;-83
2023/06/02 08:29:23;;;;;;;7.95;5.15;;;;;;;28.87;37.00;98768.50;4345352;33;33571;-84
2023/06/02 08:31:51;;;;;;;9.40;5.28;;;;;;;28.55;37.07;98776.00;4344885;33;33662;-84
2023/06/02 08:34:20;;;;;;;9.40;5.82;;;;;;;28.60;37.68;98772.09;4345145;33;33746;-83
2023/06/02 08:36:52;;;;;;;8.68;4.87;;;;;;;28.40;37.60;98774.37;4345473;33;33401;-84
2023/06/02 08:39:20;;;;;;;10.43;5.70;;;;;;;28.74;36.54;98770.28;4344949;33;34609;-84
2023/06/02 08:41:48;;;;;;;12.98;5.12;;;;;;;28.48;37.18;98772.03;4345260;33;32894;-84
2023/06/02 08:44:16;;;;;;;9.13;5.20;;;;;;;28.10;36.45;98776.25;4345060;33;33598;-83
2023/06/02 08:46:48;;;;;;;10.40;4.75;;;;;;;28.03;37.36;98776.75;4344660;33;34313;-85
2023/06/02 08:49:18;;;;;;;12.60;5.37;;;;;;;28.60;35.71;98777.44;4345146;33;33660;-84
2023/06/02 08:51:47;;;;;;;9.35;5.20;;;;;;;28.57;36.44;98772.28;4344853;33;33157;-84
2023/06/02 08:54:15;;;;;;;9.45;4.97;;;;;;;28.46;36.72;98772.16;4331547;33;34738;-84
2023/06/02 08:56:43;;;;;;;10.70;4.20;;;;;;;28.36;34.81;98763.88;4344916;33;34810;-84
2023/06/02 08:59:11;;;;;;;9.27;5.03;;;;;;;28.90;34.01;98768.28;4319877;33;33642;-84
2023/06/02 09:01:42;;;;;;;7.75;4.57;;;;;;;28.69;34.69;98756.41;4344986;33;33912;-84
2023/06/02 09:04:09;;;;;;;7.87;4.65;;;;;;;28.22;35.77;98763.06;4343867;33;34053;-84
2023/06/02 09:06:37;;;;;;;8.98;4.68;;;;;;;28.84;36.25;98761.56;4344709;33;35163;-83
2023/06/02 09:09:05;;;;;;;11.00;4.72;;;;;;;29.15;34.84;98745.25;4344734;33;34824;-84
2023/06/02 09:11:33;;;;;;;9.93;4.60;;;;;;;28.73;34.25;98744.56;4344821;33;34273;-84
2023/06/02 09:14:01;;;;;;;7.43;4.47;;;;;;;28.81;36.07;98743.09;4344408;33;33817;-84
2023/06/02 09:16:39;;;;;;;9.13;4.28;;;;;;;29.76;35.45;98738.22;4343390;33;33806;-84
2023/06/02 09:19:06;;;;;;;8.07;4.65;;;;;;;29.60;34.47;98737.66;4331203;33;32346;-83
2023/06/02 09:21:35;;;;;;;10.25;4.62;;;;;;;29.41;34.67;98736.25;4344884;33;34031;-83
2023/06/02 09:24:03;;;;;;;8.05;4.50;;;;;;;29.12;33.81;98726.78;4344640;33;33593;-84
2023/06/02 09:26:34;;;;;;;7.68;4.68;;;;;;;29.51;33.34;98721.28;4344376;33;34070;-84
2023/06/02 09:29:11;;;;;;;10.00;5.47;;;;;;;29.08;34.38;98719.00;4344351;33;33665;-83
2023/06/02 09:31:55;;;;;;;10.13;4.95;;;;;;;29.15;34.15;98723.91;4331373;32;33401;-84
2023/06/02 09:34:24;;;;;;;7.65;4.70;;;;;;;29.34;33.90;98725.16;4344638;33;34061;-84
2023/06/02 09:36:53;;;;;;;10.02;4.65;;;;;;;29.06;35.70;98720.06;4345300;33;33784;-84
2023/06/02 09:39:34;;;;;;;7.68;4.10;;;;;;;29.43;34.80;98718.28;4346464;32;34340;-84
2023/06/02 09:42:02;;;;;;;10.43;5.65;;;;;;;29.25;34.08;98722.31;4345518;33;33138;-83
2023/06/02 09:44:30;;;;;;;7.35;4.60;;;;;;;29.32;34.08;98724.44;4332865;33;32302;-84
2023/06/02 09:46:59;;;;;;;8.45;4.90;;;;;;;29.97;33.14;98709.94;4333323;33;33673;-85
2023/06/02 09:49:37;;;;;;;9.02;4.65;;;;;;;29.76;34.18;98708.84;4333394;33;33360;-84
2023/06/02 09:52:15;;;;;;;8.15;4.78;;;;;;;30.18;32.12;98703.97;4333195;33;32852;-85
2023/06/02 09:54:48;;;;;;;6.97;4.40;;;;;;;29.72;32.32;98712.69;4345377;33;33928;-84
2023/06/02 09:57:16;;;;;;;8.52;4.82;;;;;;;29.34;33.19;98700.28;4333072;33;33729;-84
2023/06/02 09:59:44;;;;;;;11.50;5.65;;;;;;;29.23;34.87;98706.37;4345416;33;33255;-84
2023/06/02 10:02:13;;;;;;;7.70;5.18;;;;;;;28.89;35.54;98717.69;4346647;32;34447;-84
2023/06/02 10:04:41;;;;;;;8.20;5.20;;;;;;;29.02;35.20;98724.78;4346455;33;34843;-83
2023/06/02 10:07:31;;;;;;;11.68;4.60;;;;;;;29.47;36.06;98721.59;4346696;33;34398;-84
2023/06/02 10:10:11;;;;;;;9.50;4.82;;;;;;;29.18;35.40;98723.69;4333259;33;34242;-84
2023/06/02 10:13:06;;;;;;;11.45;4.62;;;;;;;29.60;34.57;98721.63;4346515;33;33671;-84
2023/06/02 10:15:43;;;;;;;10.13;4.70;;;;;;;29.51;33.69;98721.28;4346445;33;34110;-85
2023/06/02 10:18:29;;;;;;;9.63;5.45;;;;;;;29.14;34.93;98717.72;4346169;33;34167;-84
2023/06/02 10:21:34;;;;;;;7.78;4.95;;;;;;;28.70;35.43;98726.97;4346691;33;33753;-85
2023/06/02 10:24:04;;;;;;;9.02;5.07;;;;;;;28.47;36.49;98733.84;4346282;33;33720;-85
2023/06/02 10:26:38;;;;;;;10.63;5.03;;;;;;;27.86;38.67;98735.22;4346476;33;33244;-86
2023/06/02 10:29:08;;;;;;;10.23;5.55;;;;;;;27.41;39.70;98743.34;4332605;33;32612;-85
2023/06/02 10:31:36;;;;;;;11.40;5.22;;;;;;;27.13;39.70;98748.72;4346071;33;34753;-85
2023/06/02 10:34:04;;;;;;;8.57;4.95;;;;;;;26.89;40.70;98748.34;4345950;33;33218;-85
2023/06/02 10:37:03;;;;;;;9.73;5.10;;;;;;;26.73;40.00;98736.94;4346214;32;33730;-85
2023/06/02 10:39:39;;;;;;;8.30;4.80;;;;;;;26.90;39.38;98726.16;4346227;33;34706;-85
2023/06/02 10:42:10;;;;;;;13.05;5.70;;;;;;;26.91;40.25;98719.87;4346201;33;34001;-85
2023/06/02 10:44:37;;;;;;;8.90;5.18;;;;;;;27.50;41.71;98715.28;4320691;33;32992;-85
2023/06/02 10:47:17;;;;;;;8.68;4.95;;;;;;;27.74;37.97;98706.69;4344183;33;34273;-85
2023/06/02 10:49:58;;;;;;;7.18;4.30;;;;;;;28.02;36.73;98706.63;4332834;33;34129;-85
2023/06/02 10:52:27;;;;;;;9.32;4.70;;;;;;;28.23;37.04;98706.16;4332948;33;34293;-85
2023/06/02 10:55:06;;;;;;;8.45;4.80;;;;;;;27.83;37.68;98712.28;4346561;33;34173;-85
2023/06/02 10:57:53;;;;;;;8.23;4.95;;;;;;;27.75;36.30;98713.75;4346302;33;33481;-85
2023/06/02 11:00:32;;;;;;;9.68;4.90;;;;;;;28.23;35.38;98719.50;4345966;33;34221;-85
2023/06/02 11:03:17;;;;;;;9.15;4.68;;;;;;;27.59;36.79;98713.87;4345963;33;33891;-85
2023/06/02 11:05:46;;;;;;;7.72;4.57;;;;;;;27.74;39.30;98718.25;4332722;33;33595;-85
2023/06/02 11:08:21;;;;;;;12.57;5.20;;;;;;;27.35;43.08;98737.56;4320551;33;33966;-85
2023/06/02 11:10:51;;;;;;;11.05;5.00;;;;;;;27.78;41.71;98745.53;4345665;33;34526;-85
2023/06/02 11:13:19;;;;;;;17.98;6.10;;;;;;;27.26;43.81;98748.78;4345897;33;33604;-84
2023/06/02 11:15:59;;;;;;;13.45;6.40;;;;;;;27.30;44.72;98753.81;4332415;33;34042;-84
2023/06/02 11:18:32;;;;;;;17.55;6.72;;;;;;;27.35;49.62;98769.50;4345680;33;33965;-85
2023/06/02 11:21:04;;;;;;;13.27;6.22;;;;;;;27.15;50.55;98784.03;4345904;33;34275;-85
2023/06/02 11:23:32;;;;;;;17.87;6.53;;;;;;;26.17;50.02;98785.31;4332336;33;33928;-85
2023/06/02 11:26:07;;;;;;;9.38;6.03;;;;;;;25.80;48.43;98767.97;4345690;33;33347;-84
2023/06/02 11:28:34;;;;;;;9.52;5.40;;;;;;;25.76;51.55;98768.16;4332436;33;33528;-84
2023/06/02 11:31:12;;;;;;;14.30;6.75;;;;;;;25.47;53.01;98773.28;4332275;33;33525;-85
2023/06/02 11:34:00;;;;;;;11.27;5.90;;;;;;;25.35;53.32;98793.41;4332306;33;34300;-84
2023/06/02 11:36:29;;;;;;;13.10;7.25;;;;;;;23.99;52.77;98808.19;4345803;33;33533;-85
2023/06/02 11:39:04;;;;;;;13.93;7.32;;;;;;;23.29;54.20;98815.75;4345565;33;34684;-84
2023/06/02 11:41:31;;;;;;;18.30;7.65;;;;;;;23.40;55.79;98802.03;4345811;33;34179;-85